Time;durP1;ratioP1;P1;durP2;ratioP2;P2;SDS_P1;SDS_P2;PMS_P1;PMS_P2;Temp;Humidity;BMP_temperature;BMP_pressure;BME280_temperature;BME280_humidity;BME280_pressure;Samples;Min_cycle;Max_cycle;Signal;HPM_P1;HPM_P2
2022/09/18 00:00:51;;;;;;;11.55;2.88;;;12.30;99.90;;;;;;5154312;27;19990;-63
2022/09/18 00:03:16;;;;;;;9.93;1.48;;;11.90;99.90;;;;;;5154195;27;20046;-64
2022/09/18 00:05:42;;;;;;;11.98;1.95;;;12.50;99.90;;;;;;5135540;27;20396;-64
2022/09/18 00:08:08;;;;;;;14.27;2.25;;;11.90;99.90;;;;;;5153169;27;20065;-65
2022/09/18 00:10:42;;;;;;;17.88;1.77;;;11.60;99.90;;;;;;5153928;27;20071;-66
2022/09/18 00:13:08;;;;;;;11.18;1.98;;;12.50;99.90;;;;;;5153434;27;20047;-65
2022/09/18 00:15:34;;;;;;;;;;;11.40;99.90;;;;;;5154607;27;20047;-65
2022/09/18 00:17:59;;;;;;;12.88;1.80;;;11.00;99.90;;;;;;5153850;27;19963;-63
2022/09/18 00:20:25;;;;;;;11.85;2.03;;;11.50;99.90;;;;;;5153567;27;20039;-63
2022/09/18 00:22:51;;;;;;;10.90;1.75;;;11.00;99.90;;;;;;5153198;27;20042;-62
2022/09/18 00:25:16;;;;;;;12.95;1.90;;;11.60;99.90;;;;;;5153859;27;20046;-63
2022/09/18 00:27:42;;;;;;;12.25;1.70;;;11.50;99.90;;;;;;5153694;27;20342;-63
2022/09/18 00:30:08;;;;;;;14.57;2.45;;;12.70;99.90;;;;;;5153425;27;20390;-64
2022/09/18 00:32:34;;;;;;;11.45;2.25;;;11.70;99.90;;;;;;5152913;27;20150;-63
2022/09/18 00:35:00;;;;;;;9.05;1.60;;;11.90;99.90;;;;;;5153916;27;20047;-63
2022/09/18 00:37:26;;;;;;;10.38;1.80;;;13.10;99.90;;;;;;5153487;27;20057;-63
2022/09/18 00:39:52;;;;;;;15.80;2.05;;;11.70;99.90;;;;;;5153631;27;20054;-62
2022/09/18 00:42:19;;;;;;;11.02;2.38;;;11.90;99.90;;;;;;5135021;27;20057;-63
2022/09/18 00:44:46;;;;;;;15.48;2.20;;;12.20;99.90;;;;;;5153205;27;20751;-63
2022/09/18 00:47:20;;;;;;;11.25;2.30;;;11.80;99.90;;;;;;5153165;27;20671;-63
2022/09/18 00:49:56;;;;;;;20.90;2.75;;;11.90;99.90;;;;;;5153434;27;20062;-63
2022/09/18 00:52:27;;;;;;;13.52;2.00;;;12.00;99.90;;;;;;5153419;27;20209;-62
2022/09/18 00:54:59;;;;;;;13.38;1.92;;;11.80;99.90;;;;;;5153257;27;20438;-63
2022/09/18 00:57:31;;;;;;;8.60;1.45;;;11.50;99.90;;;;;;5153139;27;20074;-64
2022/09/18 00:59:59;;;;;;;10.18;2.00;;;12.00;99.90;;;;;;5152955;27;20039;-63
2022/09/18 01:02:25;;;;;;;11.88;2.35;;;12.20;99.90;;;;;;5153232;27;20359;-62
2022/09/18 01:04:51;;;;;;;18.10;1.90;;;13.10;99.90;;;;;;5152846;27;20047;-62
2022/09/18 01:07:16;;;;;;;11.38;1.73;;;12.00;99.90;;;;;;5153487;27;20051;-62
2022/09/18 01:10:17;;;;;;;13.20;1.83;;;12.00;99.90;;;;;;5153260;27;20062;-65
2022/09/18 01:12:56;;;;;;;10.95;1.80;;;12.00;99.90;;;;;;5031604;28;20044;-63
2022/09/18 01:15:52;;;;;;;14.88;1.75;;;12.10;99.90;;;;;;5139842;27;20142;-62
2022/09/18 01:18:30;;;;;;;10.38;1.60;;;12.20;99.90;;;;;;5153148;27;20042;-63
2022/09/18 01:21:06;;;;;;;17.02;2.15;;;12.10;99.90;;;;;;5134345;27;20125;-61
2022/09/18 01:23:53;;;;;;;10.80;1.85;;;12.20;99.90;;;;;;5152978;27;20764;-61
2022/09/18 01:26:24;;;;;;;14.57;1.90;;;12.00;99.90;;;;;;5152963;27;20111;-64
2022/09/18 01:28:59;;;;;;;11.75;1.80;;;12.30;99.90;;;;;;5152933;27;20046;-62
2022/09/18 01:31:37;;;;;;;10.18;1.88;;;12.30;99.90;;;;;;5151755;27;20058;-62
2022/09/18 01:34:17;;;;;;;16.80;1.98;;;12.30;99.90;;;;;;5152647;27;20047;-62
2022/09/18 01:36:48;;;;;;;16.80;2.08;;;12.20;99.90;;;;;;5152800;27;20058;-64
2022/09/18 01:39:27;;;;;;;16.90;2.08;;;12.40;99.90;;;;;;5152791;27;20544;-66
2022/09/18 01:41:55;;;;;;;15.63;2.13;;;12.50;99.90;;;;;;5117665;27;20047;-62
2022/09/18 01:44:27;;;;;;;14.95;2.20;;;12.20;99.90;;;;;;5152306;27;20046;-62
2022/09/18 01:46:57;;;;;;;13.60;2.05;;;13.20;99.90;;;;;;5152504;27;20838;-62
2022/09/18 01:49:27;;;;;;;17.45;2.85;;;12.00;99.90;;;;;;5152767;27;20043;-62
2022/09/18 01:52:08;;;;;;;9.35;2.10;;;12.20;99.90;;;;;;5152635;27;20054;-62
2022/09/18 01:54:41;;;;;;;16.48;1.85;;;12.00;99.90;;;;;;5152494;27;20054;-62
2022/09/18 01:57:12;;;;;;;11.27;1.65;;;12.00;99.90;;;;;;5153134;27;20134;-64
2022/09/18 01:59:44;;;;;;;12.10;1.90;;;12.10;99.90;;;;;;5152343;27;20160;-63
2022/09/18 02:02:42;;;;;;;21.98;2.85;;;12.30;99.90;;;;;;5152250;27;20068;-63
2022/09/18 02:05:13;;;;;;;6.65;1.45;;;12.20;99.90;;;;;;5110304;27;20489;-62
2022/09/18 02:07:48;;;;;;;8.43;1.38;;;11.90;99.90;;;;;;5152899;27;20125;-62
2022/09/18 02:10:15;;;;;;;13.00;1.52;;;12.40;99.90;;;;;;5152454;27;20130;-62
2022/09/18 02:12:42;;;;;;;;;;;12.30;99.90;;;;;;5152861;27;20163;-62
2022/09/18 02:15:13;;;;;;;11.68;1.95;;;12.30;99.90;;;;;;5152501;27;20005;-62
2022/09/18 02:17:49;;;;;;;12.68;2.22;;;12.00;99.90;;;;;;5152713;27;20039;-63
2022/09/18 02:20:25;;;;;;;9.48;2.35;;;12.30;99.90;;;;;;5152423;27;20047;-64
2022/09/18 02:22:52;;;;;;;23.80;2.83;;;12.10;99.90;;;;;;5152247;27;20082;-62
2022/09/18 02:25:24;;;;;;;15.88;2.60;;;12.10;99.90;;;;;;5152041;27;20053;-65
2022/09/18 02:27:53;;;;;;;10.00;1.83;;;12.40;99.90;;;;;;5151969;27;20085;-62
2022/09/18 02:30:19;;;;;;;10.98;1.80;;;12.50;99.90;;;;;;5152092;27;20509;-63
2022/09/18 02:32:45;;;;;;;13.32;1.70;;;12.30;99.90;;;;;;5155668;27;20120;-66
2022/09/18 02:35:11;;;;;;;;;;;12.50;99.90;;;;;;5156361;27;20069;-62
2022/09/18 02:38:01;;;;;;;9.63;1.60;;;13.40;99.90;;;;;;5155739;27;19972;-62
2022/09/18 02:40:32;;;;;;;13.80;2.08;;;12.60;99.90;;;;;;5156562;27;20099;-66
2022/09/18 02:43:18;;;;;;;9.35;1.60;;;12.20;99.90;;;;;;5154833;27;20031;-62
2022/09/18 02:46:11;;;;;;;8.05;1.67;;;13.20;99.90;;;;;;5102715;27;20133;-66
2022/09/18 02:48:46;;;;;;;12.18;1.80;;;12.50;99.90;;;;;;5155910;27;20054;-62
2022/09/18 02:51:15;;;;;;;13.07;1.83;;;12.50;99.90;;;;;;5155721;27;20485;-61
2022/09/18 02:53:56;;;;;;;17.05;2.42;;;12.50;99.90;;;;;;5155588;27;20038;-61
2022/09/18 02:56:32;;;;;;;7.13;1.30;;;12.00;99.90;;;;;;5154689;27;20363;-62
2022/09/18 02:59:07;;;;;;;8.93;1.63;;;11.40;99.90;;;;;;5135844;27;20502;-62
2022/09/18 03:01:33;;;;;;;8.65;1.83;;;10.90;99.90;;;;;;5155903;27;20398;-61
2022/09/18 03:04:04;;;;;;;11.77;2.03;;;12.20;99.90;;;;;;5155413;27;20376;-66
2022/09/18 03:06:30;;;;;;;11.35;1.58;;;10.40;99.90;;;;;;5155880;27;20082;-61
2022/09/18 03:08:56;;;;;;;10.30;1.80;;;11.20;99.90;;;;;;5155069;27;20078;-63
2022/09/18 03:11:22;;;;;;;10.02;1.50;;;10.80;99.90;;;;;;5154967;27;20057;-63
2022/09/18 03:13:47;;;;;;;14.40;2.47;;;10.00;99.90;;;;;;5155587;27;20035;-61
2022/09/18 03:16:13;;;;;;;9.88;1.63;;;10.00;99.90;;;;;;5154637;27;20053;-65
2022/09/18 03:18:39;;;;;;;8.43;1.95;;;10.30;99.90;;;;;;5155205;27;20050;-65
2022/09/18 03:21:05;;;;;;;11.30;1.15;;;10.80;99.90;;;;;;5155154;27;20086;-63
2022/09/18 03:23:30;;;;;;;9.02;1.40;;;10.30;99.90;;;;;;5155427;27;20097;-62
2022/09/18 03:25:56;;;;;;;7.80;1.70;;;10.30;99.90;;;;;;5154802;27;20106;-65
2022/09/18 03:28:22;;;;;;;10.55;1.85;;;10.60;99.90;;;;;;5155028;27;20050;-61
2022/09/18 03:30:48;;;;;;;7.65;1.33;;;11.00;99.90;;;;;;5154974;27;20498;-62
2022/09/18 03:33:14;;;;;;;10.85;1.40;;;10.80;99.90;;;;;;5154860;27;20512;-65
2022/09/18 03:35:42;;;;;;;7.57;1.27;;;13.10;99.90;;;;;;5136307;27;20038;-62
2022/09/18 03:38:08;;;;;;;10.10;1.70;;;10.70;99.90;;;;;;5155272;27;20182;-62
2022/09/18 03:40:33;;;;;;;7.53;1.50;;;10.80;99.90;;;;;;5154500;27;20545;-64
2022/09/18 03:42:59;;;;;;;11.40;1.58;;;11.80;99.90;;;;;;5153112;27;20043;-64
2022/09/18 03:45:25;;;;;;;11.13;1.60;;;10.80;99.90;;;;;;5154302;27;20134;-62
2022/09/18 03:47:50;;;;;;;13.45;1.67;;;10.90;99.90;;;;;;5154468;27;20058;-62
2022/09/18 03:50:16;;;;;;;11.07;2.05;;;11.50;99.90;;;;;;5154279;27;20043;-63
2022/09/18 03:52:42;;;;;;;8.13;1.52;;;11.10;99.90;;;;;;5154645;27;20086;-61
2022/09/18 03:55:10;;;;;;;8.25;1.90;;;11.40;99.90;;;;;;5154311;27;20047;-62
2022/09/18 03:57:35;;;;;;;7.03;1.58;;;11.70;99.90;;;;;;5155017;27;20046;-64
2022/09/18 04:00:01;;;;;;;10.63;1.70;;;11.40;99.90;;;;;;5154637;27;20461;-61
2022/09/18 04:02:26;;;;;;;14.63;1.70;;;11.50;99.90;;;;;;5153478;27;20509;-64
2022/09/18 04:04:52;;;;;;;7.85;1.58;;;11.70;99.90;;;;;;5153958;27;20123;-62
2022/09/18 04:07:19;;;;;;;8.98;1.33;;;12.30;99.90;;;;;;5135735;27;20050;-62
2022/09/18 04:09:44;;;;;;;;;;;11.50;99.90;;;;;;5154044;27;20640;-65
2022/09/18 04:12:10;;;;;;;19.85;1.80;;;11.30;99.90;;;;;;5154060;27;20055;-63
2022/09/18 04:14:36;;;;;;;7.43;1.58;;;11.40;99.90;;;;;;5154029;27;20049;-60
2022/09/18 04:17:02;;;;;;;11.38;1.70;;;11.90;99.90;;;;;;5135394;27;20042;-65
2022/09/18 04:19:27;;;;;;;10.07;1.50;;;11.90;99.90;;;;;;5153725;27;20047;-63
2022/09/18 04:21:53;;;;;;;14.23;1.95;;;11.70;99.90;;;;;;5153829;27;20542;-63
2022/09/18 04:24:18;;;;;;;8.50;1.70;;;11.80;99.90;;;;;;5153751;27;20082;-63
2022/09/18 04:26:44;;;;;;;16.17;1.63;;;12.10;99.90;;;;;;5153861;27;20663;-63
2022/09/18 04:29:10;;;;;;;15.93;1.75;;;11.50;99.90;;;;;;5153507;27;20073;-64
2022/09/18 04:31:35;;;;;;;16.00;1.95;;;11.40;99.90;;;;;;5153786;27;20367;-63
2022/09/18 04:34:01;;;;;;;11.73;2.25;;;11.50;99.90;;;;;;5153153;27;20119;-63
2022/09/18 04:36:27;;;;;;;15.45;2.47;;;11.60;99.90;;;;;;5152790;27;20042;-65
2022/09/18 04:38:52;;;;;;;6.47;1.63;;;11.70;99.90;;;;;;5153763;27;20049;-62
2022/09/18 04:41:18;;;;;;;5.28;1.48;;;12.30;99.90;;;;;;5153533;27;20141;-61
2022/09/18 04:43:44;;;;;;;9.07;1.20;;;11.90;99.90;;;;;;5153736;27;20043;-65
2022/09/18 04:46:09;;;;;;;8.68;1.83;;;11.50;99.90;;;;;;5153641;27;20087;-62
2022/09/18 04:48:35;;;;;;;10.48;1.98;;;12.00;99.90;;;;;;5153629;27;20054;-63
2022/09/18 04:51:01;;;;;;;22.58;3.15;;;11.60;99.90;;;;;;5153731;27;20110;-61
2022/09/18 04:53:27;;;;;;;10.23;1.92;;;11.00;99.90;;;;;;5152307;27;20038;-63
2022/09/18 04:55:52;;;;;;;14.63;2.22;;;11.00;99.90;;;;;;5152676;27;20500;-63
2022/09/18 04:58:19;;;;;;;11.88;1.67;;;10.70;99.90;;;;;;5153252;27;20053;-60
2022/09/18 05:00:49;;;;;;;14.45;1.70;;;10.70;99.90;;;;;;5153294;27;20057;-63
2022/09/18 05:03:16;;;;;;;14.27;2.13;;;10.30;99.90;;;;;;5153068;27;20046;-60
2022/09/18 05:05:42;;;;;;;18.00;1.85;;;10.10;99.90;;;;;;5153175;27;20362;-60
2022/09/18 05:08:08;;;;;;;12.65;1.50;;;10.20;99.90;;;;;;5153752;27;20054;-61
2022/09/18 05:10:33;;;;;;;13.82;1.73;;;10.70;99.90;;;;;;5153114;27;20064;-61
2022/09/18 05:12:59;;;;;;;10.98;1.70;;;10.40;99.90;;;;;;5152601;27;20047;-61
2022/09/18 05:15:25;;;;;;;16.67;2.00;;;10.70;99.90;;;;;;5152154;27;20150;-62
2022/09/18 05:18:02;;;;;;;15.43;1.60;;;10.20;99.90;;;;;;5134562;27;20703;-63
2022/09/18 05:20:28;;;;;;;14.82;1.60;;;10.10;99.90;;;;;;5153418;27;20121;-60
2022/09/18 05:22:55;;;;;;;15.07;2.50;;;10.40;99.90;;;;;;5152941;27;20053;-60
2022/09/18 05:25:22;;;;;;;8.05;1.38;;;10.50;99.90;;;;;;5153005;27;20561;-62
2022/09/18 05:28:01;;;;;;;8.25;1.50;;;10.40;99.90;;;;;;5153084;27;20481;-60
2022/09/18 05:30:28;;;;;;;12.10;1.83;;;10.40;99.90;;;;;;5152565;27;20454;-60
2022/09/18 05:32:59;;;;;;;14.00;1.73;;;10.50;99.90;;;;;;5134366;27;20126;-60
2022/09/18 05:35:27;;;;;;;8.55;1.50;;;11.70;99.90;;;;;;5152681;27;20042;-59
2022/09/18 05:37:53;;;;;;;15.65;1.98;;;10.70;99.90;;;;;;5152752;27;20466;-66
2022/09/18 05:40:22;;;;;;;10.25;1.77;;;10.50;99.90;;;;;;5152638;27;20039;-63
2022/09/18 05:42:49;;;;;;;7.32;1.70;;;10.60;99.90;;;;;;5152927;27;20119;-63
2022/09/18 05:45:16;;;;;;;8.50;1.50;;;10.50;99.90;;;;;;5153650;27;20050;-59
2022/09/18 05:47:41;;;;;;;15.65;1.73;;;10.60;99.90;;;;;;5152597;27;20063;-61
2022/09/18 05:50:08;;;;;;;11.40;1.73;;;10.70;99.90;;;;;;5151486;27;20043;-61
2022/09/18 05:52:34;;;;;;;17.90;2.67;;;10.80;99.90;;;;;;5133297;27;20099;-60
2022/09/18 05:55:00;;;;;;;9.68;1.98;;;10.70;99.90;;;;;;5153175;27;20038;-60
2022/09/18 05:57:26;;;;;;;13.43;1.80;;;10.40;99.90;;;;;;5152824;27;20050;-66
2022/09/18 05:59:52;;;;;;;7.55;1.60;;;10.70;99.90;;;;;;5153234;27;20050;-60
2022/09/18 06:02:17;;;;;;;6.70;1.40;;;10.50;99.90;;;;;;5151669;27;20053;-61
2022/09/18 06:04:43;;;;;;;7.85;1.38;;;10.80;99.90;;;;;;5152305;27;20043;-60
2022/09/18 06:07:09;;;;;;;12.23;2.03;;;10.80;99.90;;;;;;5155763;27;20381;-60
2022/09/18 06:09:34;;;;;;;6.28;1.40;;;10.60;99.90;;;;;;5156977;27;20043;-61
2022/09/18 06:12:00;;;;;;;10.57;1.48;;;11.20;99.90;;;;;;5155880;27;20050;-66
2022/09/18 06:14:26;;;;;;;7.85;1.83;;;10.50;99.90;;;;;;5156584;27;20751;-60
2022/09/18 06:16:52;;;;;;;13.43;1.70;;;10.40;99.90;;;;;;5156161;27;20051;-61
2022/09/18 06:19:18;;;;;;;12.40;1.60;;;10.60;99.90;;;;;;5156216;27;20482;-60
2022/09/18 06:21:43;;;;;;;13.25;1.80;;;10.80;99.90;;;;;;5156319;27;20045;-60
2022/09/18 06:24:09;;;;;;;14.65;1.67;;;10.60;99.90;;;;;;5156800;27;20497;-61
2022/09/18 06:26:35;;;;;;;13.63;1.83;;;10.80;99.90;;;;;;5156377;27;20039;-61
2022/09/18 06:29:00;;;;;;;16.17;2.03;;;10.70;99.90;;;;;;5156167;27;20062;-63
2022/09/18 06:31:26;;;;;;;19.13;1.88;;;10.80;99.90;;;;;;5156194;27;20070;-60
2022/09/18 06:33:52;;;;;;;11.05;1.67;;;10.90;99.90;;;;;;5156029;27;20051;-64
2022/09/18 06:36:17;;;;;;;11.48;1.80;;;10.90;99.90;;;;;;5156708;27;20051;-61
2022/09/18 06:38:43;;;;;;;11.57;1.50;;;12.30;99.90;;;;;;5128981;27;20039;-60
2022/09/18 06:41:09;;;;;;;7.72;1.25;;;10.90;99.90;;;;;;5113955;28;20149;-62
2022/09/18 06:43:35;;;;;;;10.65;1.70;;;11.20;99.90;;;;;;5114132;28;20063;-60
2022/09/18 06:46:01;;;;;;;7.35;1.60;;;11.30;99.90;;;;;;5113893;28;20062;-63
2022/09/18 06:48:30;;;;;;;8.40;1.70;;;11.60;99.90;;;;;;5113775;28;20491;-64
2022/09/18 06:50:58;;;;;;;7.00;1.30;;;11.70;99.90;;;;;;5114087;28;20044;-62
2022/09/18 06:53:25;;;;;;;7.90;1.10;;;11.70;99.90;;;;;;5111106;27;20137;-64
2022/09/18 06:55:50;;;;;;;6.57;1.15;;;11.60;99.90;;;;;;5114511;27;20073;-60
2022/09/18 06:58:18;;;;;;;2.60;1.05;;;12.70;99.90;;;;;;5132579;27;20766;-60
2022/09/18 07:00:44;;;;;;;6.05;1.20;;;11.70;99.90;;;;;;5132838;27;20051;-61
2022/09/18 07:03:11;;;;;;;3.47;1.10;;;11.80;99.90;;;;;;5116623;27;20054;-59
2022/09/18 07:05:41;;;;;;;;;;;12.20;99.90;;;;;;5135719;27;20049;-58
2022/09/18 07:08:08;;;;;;;10.20;1.55;;;11.40;99.90;;;;;;5135276;27;19953;-62
2022/09/18 07:10:33;;;;;;;9.88;2.15;;;11.80;99.90;;;;;;5134683;27;20470;-60
2022/09/18 07:13:00;;;;;;;9.80;1.65;;;12.60;99.90;;;;;;5134539;27;20078;-59
2022/09/18 07:15:27;;;;;;;7.90;1.27;;;12.80;99.90;;;;;;5134651;27;20089;-60
2022/09/18 07:17:59;;;;;;;;;;;11.80;99.90;;;;;;5134784;27;20047;-61
2022/09/18 07:20:26;;;;;;;8.98;1.10;;;12.20;99.90;;;;;;5134727;27;19920;-59
2022/09/18 07:22:58;;;;;;;;;;;12.00;99.90;;;;;;5135109;27;20517;-61
2022/09/18 07:25:26;;;;;;;6.25;1.00;;;11.60;99.90;;;;;;5134764;27;19919;-60
2022/09/18 07:27:52;;;;;;;6.35;1.30;;;11.90;99.90;;;;;;5134271;27;20047;-60
2022/09/18 07:30:18;;;;;;;12.88;1.40;;;13.60;99.90;;;;;;5133998;27;20043;-61
2022/09/18 07:32:44;;;;;;;13.27;1.73;;;11.80;99.90;;;;;;5132881;27;20051;-62
2022/09/18 07:35:10;;;;;;;8.90;1.60;;;11.50;99.90;;;;;;5130199;27;20040;-64
2022/09/18 07:37:37;;;;;;;3.75;1.20;;;11.60;99.90;;;;;;5133601;27;20050;-60
2022/09/18 07:40:05;;;;;;;7.00;1.27;;;11.70;99.90;;;;;;5133378;27;20108;-61
2022/09/18 07:42:30;;;;;;;10.80;1.80;;;11.50;99.90;;;;;;5132834;27;20106;-62
2022/09/18 07:44:56;;;;;;;7.15;1.60;;;11.50;99.90;;;;;;5133452;27;20487;-63
2022/09/18 07:47:24;;;;;;;10.55;1.88;;;11.40;99.90;;;;;;5132886;27;20053;-60
2022/09/18 07:49:50;;;;;;;7.95;1.85;;;11.20;99.90;;;;;;5132781;27;20063;-60
2022/09/18 07:52:16;;;;;;;9.77;1.42;;;11.20;99.90;;;;;;5132821;27;20050;-60
2022/09/18 07:54:42;;;;;;;12.55;2.10;;;11.70;99.90;;;;;;5114563;27;20435;-68
2022/09/18 07:57:07;;;;;;;13.05;1.80;;;11.10;99.90;;;;;;5132348;27;20080;-61
2022/09/18 07:59:33;;;;;;;18.83;2.05;;;11.60;99.90;;;;;;5114622;27;20108;-64
2022/09/18 08:01:59;;;;;;;12.93;1.60;;;11.20;99.90;;;;;;5113850;27;20135;-62
2022/09/18 08:04:24;;;;;;;13.55;1.83;;;11.10;99.90;;;;;;5135520;27;20118;-60
2022/09/18 08:06:54;;;;;;;13.18;1.67;;;11.30;99.90;;;;;;5132918;27;20043;-61
2022/09/18 08:09:20;;;;;;;10.35;1.83;;;11.50;99.90;;;;;;5131853;27;20501;-63
2022/09/18 08:11:46;;;;;;;11.90;1.65;;;12.10;99.90;;;;;;5132102;27;20117;-61
2022/09/18 08:14:12;;;;;;;10.05;1.63;;;11.40;99.90;;;;;;5132441;27;20069;-64
2022/09/18 08:16:38;;;;;;;9.50;1.33;;;11.30;99.90;;;;;;5132767;27;20479;-61
2022/09/18 08:19:04;;;;;;;11.85;1.65;;;11.60;99.90;;;;;;5132936;27;20042;-61
2022/09/18 08:21:30;;;;;;;13.77;2.22;;;11.40;99.90;;;;;;5132836;27;20519;-60
2022/09/18 08:23:55;;;;;;;10.57;1.92;;;11.60;99.90;;;;;;5133148;27;20043;-60
2022/09/18 08:26:21;;;;;;;11.27;1.88;;;11.80;99.90;;;;;;5133114;27;20070;-63
2022/09/18 08:28:47;;;;;;;8.27;2.05;;;11.60;99.90;;;;;;5135082;27;20070;-61
2022/09/18 08:31:13;;;;;;;8.20;2.13;;;11.50;99.90;;;;;;5112200;27;20393;-63
2022/09/18 08:33:39;;;;;;;11.07;1.73;;;12.00;99.90;;;;;;5132726;27;20047;-62
2022/09/18 08:36:05;;;;;;;16.23;2.05;;;11.60;99.90;;;;;;5114431;27;20061;-60
2022/09/18 08:38:31;;;;;;;14.43;1.42;;;11.50;99.90;;;;;;5133126;27;20035;-61
2022/09/18 08:41:15;;;;;;;;;;;11.50;99.90;;;;;;5133704;27;20566;-62
2022/09/18 08:44:06;;;;;;;24.35;1.98;;;11.30;99.90;;;;;;5139686;27;20064;-60
2022/09/18 08:46:44;;;;;;;20.05;2.72;;;11.00;99.90;;;;;;5143385;27;20049;-60
2022/09/18 08:49:31;;;;;;;18.17;2.63;;;11.30;99.90;;;;;;5138820;27;20497;-60
2022/09/18 08:52:19;;;;;;;17.60;1.83;;;11.00;99.90;;;;;;5132374;27;20047;-60
2022/09/18 08:55:05;;;;;;;19.40;2.63;;;11.30;99.90;;;;;;5131977;27;20254;-60
2022/09/18 08:57:48;;;;;;;17.40;2.50;;;11.00;99.90;;;;;;5131556;27;20046;-59
2022/09/18 09:00:21;;;;;;;18.83;2.30;;;10.80;99.90;;;;;;5131995;27;20039;-62
2022/09/18 09:02:49;;;;;;;12.60;2.45;;;11.00;99.90;;;;;;5132435;27;20145;-59
2022/09/18 09:05:20;;;;;;;18.05;1.98;;;10.80;99.90;;;;;;5132181;27;20050;-60
2022/09/18 09:07:51;;;;;;;15.20;3.05;;;10.50;99.90;;;;;;5131298;27;20047;-60
2022/09/18 09:10:26;;;;;;;16.92;1.90;;;11.00;99.90;;;;;;5132123;27;20054;-60
2022/09/18 09:12:57;;;;;;;18.98;2.40;;;11.00;99.90;;;;;;5113704;28;20047;-61
2022/09/18 09:15:58;;;;;;;23.50;2.40;;;11.20;99.90;;;;;;5113313;27;20555;-60
2022/09/18 09:18:31;;;;;;;16.63;2.08;;;11.00;99.90;;;;;;5111501;28;20083;-59
2022/09/18 09:21:11;;;;;;;8.23;1.60;;;11.30;99.90;;;;;;5111386;28;20387;-59
2022/09/18 09:24:16;;;;;;;8.88;1.70;;;10.90;99.90;;;;;;5111505;28;20051;-58
2022/09/18 09:26:42;;;;;;;10.43;1.20;;;11.50;99.90;;;;;;5109704;28;20087;-59
2022/09/18 09:29:21;;;;;;;11.10;1.63;;;11.40;99.90;;;;;;5110305;28;20476;-59
2022/09/18 09:31:52;;;;;;;8.73;1.58;;;11.70;99.90;;;;;;5111574;28;20147;-61
2022/09/18 09:34:26;;;;;;;3.75;1.10;;;11.80;99.90;;;;;;5110078;28;20059;-60
2022/09/18 09:36:56;;;;;;;4.68;1.30;;;11.80;99.90;;;;;;5111222;28;20048;-66
2022/09/18 09:39:24;;;;;;;8.80;1.38;;;12.90;99.90;;;;;;5111228;28;20043;-60
2022/09/18 09:41:56;;;;;;;11.40;1.52;;;12.30;99.90;;;;;;5113733;28;20404;-60
2022/09/18 09:44:39;;;;;;;8.68;1.35;;;12.10;99.90;;;;;;5114782;28;20516;-61
2022/09/18 09:47:34;;;;;;;10.98;1.27;;;12.50;99.90;;;;;;5115589;27;20051;-61
2022/09/18 09:50:08;;;;;;;10.73;2.38;;;12.40;99.90;;;;;;5116582;27;20048;-61
2022/09/18 09:52:37;;;;;;;7.30;1.40;;;12.70;99.90;;;;;;5137469;27;20047;-62
2022/09/18 09:55:06;;;;;;;9.93;1.52;;;13.40;99.90;;;;;;5133876;27;20478;-65
2022/09/18 09:57:34;;;;;;;14.82;1.85;;;12.90;99.90;;;;;;5134236;27;20083;-60
2022/09/18 10:00:12;;;;;;;9.45;1.35;;;12.90;99.90;;;;;;5134969;27;20107;-60
2022/09/18 10:03:15;;;;;;;7.55;1.65;;;12.70;99.90;;;;;;5116797;27;20487;-61
2022/09/18 10:05:58;;;;;;;15.73;1.75;;;12.50;99.90;;;;;;5145973;27;20053;-60
2022/09/18 10:08:45;;;;;;;13.75;1.55;;;12.70;99.90;;;;;;5156485;27;20059;-62
2022/09/18 10:11:12;;;;;;;11.63;1.88;;;12.70;99.90;;;;;;5155908;27;20769;-61
2022/09/18 10:13:53;;;;;;;12.25;2.13;;;12.80;99.90;;;;;;5136724;27;20039;-64
2022/09/18 10:16:24;;;;;;;15.70;1.83;;;13.00;99.90;;;;;;5155789;27;20047;-63
2022/09/18 10:18:50;;;;;;;13.68;2.70;;;13.40;99.90;;;;;;5156276;27;20089;-62
2022/09/18 10:21:20;;;;;;;;;;;12.40;99.90;;;;;;5156742;27;20051;-64
2022/09/18 10:23:58;;;;;;;9.88;1.58;;;12.60;99.90;;;;;;5155014;27;20378;-63
2022/09/18 10:26:33;;;;;;;6.95;1.50;;;12.50;99.90;;;;;;5154727;27;20039;-61
2022/09/18 10:28:59;;;;;;;13.20;1.67;;;12.40;99.90;;;;;;5155374;27;20390;-63
2022/09/18 10:31:49;;;;;;;9.40;1.73;;;12.40;99.90;;;;;;5155000;27;20062;-62
2022/09/18 10:34:44;;;;;;;11.02;1.90;;;12.20;99.90;;;;;;5155767;27;20053;-63
2022/09/18 10:37:28;;;;;;;7.57;1.50;;;12.90;99.90;;;;;;5155626;27;20082;-62
2022/09/18 10:40:00;;;;;;;11.27;2.28;;;12.90;99.90;;;;;;5154683;27;20054;-62
2022/09/18 10:42:28;;;;;;;5.50;1.45;;;13.90;99.90;;;;;;5156017;27;20043;-61
2022/09/18 10:45:01;;;;;;;6.72;1.55;;;13.40;99.90;;;;;;5137304;27;20097;-61
2022/09/18 10:47:28;;;;;;;6.35;1.50;;;13.40;99.90;;;;;;5140881;27;20513;-60
2022/09/18 10:49:55;;;;;;;5.03;1.23;;;13.40;99.90;;;;;;5116790;27;20402;-61
2022/09/18 10:52:40;;;;;;;9.20;2.00;;;13.80;99.90;;;;;;5134536;27;20441;-61
2022/09/18 10:55:08;;;;;;;10.27;1.50;;;13.70;99.90;;;;;;5118905;27;20050;-64
2022/09/18 10:57:37;;;;;;;8.68;1.80;;;14.00;99.90;;;;;;5114130;28;20482;-68
2022/09/18 11:00:12;;;;;;;11.32;1.88;;;13.80;99.90;;;;;;5114500;28;20483;-60
2022/09/18 11:02:43;;;;;;;7.88;1.58;;;13.80;99.90;;;;;;5114566;28;20126;-60
2022/09/18 11:05:29;;;;;;;11.55;1.55;;;13.90;99.90;;;;;;5113840;28;20471;-60
2022/09/18 11:07:58;;;;;;;12.27;2.00;;;13.60;99.90;;;;;;5113131;27;20060;-62
2022/09/18 11:10:26;;;;;;;3.97;1.25;;;14.30;99.90;;;;;;5120412;27;20042;-61
2022/09/18 11:12:57;;;;;;;10.50;2.72;;;13.90;99.90;;;;;;5131806;27;20051;-61
2022/09/18 11:15:26;;;;;;;11.52;2.20;;;13.70;99.90;;;;;;5134937;27;20084;-60
2022/09/18 11:17:55;;;;;;;6.47;1.63;;;14.90;99.90;;;;;;5135229;27;20050;-61
2022/09/18 11:20:33;;;;;;;8.77;1.20;;;14.20;99.90;;;;;;5135093;27;20126;-62
2022/09/18 11:23:29;;;;;;;6.45;1.60;;;13.90;99.90;;;;;;5135183;27;20046;-61
2022/09/18 11:26:27;;;;;;;9.90;1.33;;;13.70;99.90;;;;;;5127902;27;20080;-65
2022/09/18 11:29:16;;;;;;;8.85;1.52;;;14.10;99.90;;;;;;5135204;27;20046;-62
2022/09/18 11:31:48;;;;;;;6.97;1.50;;;14.10;99.90;;;;;;5134919;27;20047;-61
2022/09/18 11:34:23;;;;;;;9.95;1.65;;;14.10;99.90;;;;;;5135091;27;20047;-60
2022/09/18 11:36:56;;;;;;;8.90;1.40;;;14.20;99.90;;;;;;5135338;27;20046;-61
2022/09/18 11:39:27;;;;;;;12.05;1.90;;;14.10;99.90;;;;;;5134839;27;20039;-61
2022/09/18 11:41:54;;;;;;;7.85;1.58;;;13.90;99.90;;;;;;5134753;27;20047;-61
2022/09/18 11:44:26;;;;;;;8.18;1.63;;;14.10;99.90;;;;;;5134865;27;20468;-60
2022/09/18 11:47:10;;;;;;;4.75;1.20;;;13.90;99.90;;;;;;5134445;27;20336;-62
2022/09/18 11:49:51;;;;;;;8.75;1.50;;;14.40;99.90;;;;;;5133430;27;20065;-64
2022/09/18 11:52:49;;;;;;;9.25;1.70;;;14.30;99.90;;;;;;5130541;27;20035;-60
2022/09/18 11:55:29;;;;;;;11.23;1.83;;;14.10;99.90;;;;;;5095241;27;20054;-61
2022/09/18 11:58:16;;;;;;;9.43;1.60;;;14.10;99.90;;;;;;5134486;27;20047;-60
2022/09/18 12:01:08;;;;;;;4.80;1.35;;;13.80;99.90;;;;;;5134188;27;20420;-62
2022/09/18 12:03:48;;;;;;;9.27;1.60;;;13.70;99.90;;;;;;5133462;27;20043;-61
2022/09/18 12:06:45;;;;;;;7.13;1.60;;;13.80;99.90;;;;;;5134335;27;20356;-61
2022/09/18 12:09:35;;;;;;;12.32;1.85;;;13.90;99.90;;;;;;5134346;27;20144;-64
2022/09/18 12:12:18;;;;;;;9.50;1.45;;;13.50;99.90;;;;;;5134272;27;20057;-64
2022/09/18 12:15:00;;;;;;;7.43;1.55;;;13.80;99.90;;;;;;5134067;27;20035;-61
2022/09/18 12:17:36;;;;;;;12.50;1.50;;;13.60;99.90;;;;;;5134040;27;20047;-60
2022/09/18 12:20:09;;;;;;;7.97;1.00;;;13.70;99.90;;;;;;5133807;27;20392;-63
2022/09/18 12:22:58;;;;;;;7.35;1.35;;;13.30;99.90;;;;;;5133829;27;20074;-60
2022/09/18 12:25:53;;;;;;;6.05;1.02;;;13.40;99.90;;;;;;5134021;27;20117;-61
2022/09/18 12:28:28;;;;;;;6.93;1.23;;;12.90;99.90;;;;;;5133802;27;20089;-61
2022/09/18 12:31:14;;;;;;;7.00;1.52;;;14.20;99.90;;;;;;5133875;27;20058;-61
2022/09/18 12:34:14;;;;;;;11.10;1.90;;;13.10;99.90;;;;;;5134070;27;20095;-61
2022/09/18 12:37:10;;;;;;;8.60;1.45;;;13.60;99.90;;;;;;5133061;27;20159;-61
2022/09/18 12:39:45;;;;;;;5.70;1.20;;;13.70;99.90;;;;;;5133744;27;20051;-63
2022/09/18 12:42:24;;;;;;;9.50;1.58;;;13.60;99.90;;;;;;5133614;27;20043;-65
2022/09/18 12:45:00;;;;;;;10.07;1.98;;;14.00;99.90;;;;;;5133603;27;20078;-60
2022/09/18 12:47:51;;;;;;;11.77;2.17;;;13.90;99.90;;;;;;5133626;27;20043;-61
2022/09/18 12:50:26;;;;;;;7.63;1.30;;;14.30;99.90;;;;;;5133201;27;20043;-61
2022/09/18 12:53:03;;;;;;;8.45;1.50;;;14.30;99.90;;;;;;5133546;27;20047;-64
2022/09/18 12:55:55;;;;;;;12.75;1.95;;;14.80;99.90;;;;;;5133350;27;20047;-62
2022/09/18 12:58:57;;;;;;;10.93;1.52;;;14.40;99.90;;;;;;5133426;27;20384;-65
2022/09/18 13:01:32;;;;;;;13.18;2.00;;;14.50;99.90;;;;;;5133408;27;20042;-61
2022/09/18 13:04:24;;;;;;;15.68;1.90;;;14.30;99.90;;;;;;5133313;27;20043;-61
2022/09/18 13:07:12;;;;;;;6.43;1.77;;;13.60;99.90;;;;;;5114889;27;20146;-60